Time;durP1;ratioP1;P1;durP2;ratioP2;P2;SDS_P1;SDS_P2;PMS_P1;PMS_P2;Temp;Humidity;BMP_temperature;BMP_pressure;BME280_temperature;BME280_humidity;BME280_pressure;Samples;Min_cycle;Max_cycle;Signal;HPM_P1;HPM_P2
2021/05/22 09:26:34;;;;;;;2.67;0.57;;;;;;;16.28;40.28;98347.41;5071128;28;20083;-87
2021/05/22 09:29:02;;;;;;;1.30;0.70;;;;;;;15.57;39.50;98333.72;5089694;28;20052;-86
2021/05/22 09:31:28;;;;;;;4.38;0.88;;;;;;;15.61;42.13;98348.63;5091549;28;20056;-86
2021/05/22 09:33:59;;;;;;;3.08;0.95;;;;;;;15.34;41.04;98351.81;5090116;28;20106;-86
2021/05/22 09:36:25;;;;;;;5.45;0.90;;;;;;;14.82;40.21;98338.69;5090976;28;20642;-86
2021/05/22 09:38:55;;;;;;;3.90;0.75;;;;;;;15.17;42.56;98359.03;5090666;28;20055;-87
2021/05/22 09:41:24;;;;;;;2.72;0.60;;;;;;;15.83;42.03;98348.06;5091164;28;20051;-86
2021/05/22 09:44:07;;;;;;;5.03;0.70;;;;;;;16.30;38.31;98350.72;5090823;28;20051;-87
2021/05/22 09:46:35;;;;;;;4.25;0.77;;;;;;;16.19;37.78;98343.38;5090888;28;20060;-85
2021/05/22 09:49:08;;;;;;;1.52;0.50;;;;;;;16.60;37.10;98325.00;5089655;28;20135;-84
2021/05/22 09:51:55;;;;;;;4.43;1.10;;;;;;;16.84;37.90;98308.44;5090079;28;20140;-85
2021/05/22 09:55:06;;;;;;;4.07;0.82;;;;;;;16.74;37.39;98328.25;5090231;28;20048;-83
2021/05/22 09:57:46;;;;;;;3.83;0.77;;;;;;;16.64;38.27;98328.91;5070430;28;20127;-85
2021/05/22 10:00:15;;;;;;;6.15;1.15;;;;;;;16.31;38.32;98321.41;5074310;28;20056;-85
2021/05/22 10:02:45;;;;;;;3.90;0.70;;;;;;;16.20;39.10;98334.03;5090126;28;20403;-84
2021/05/22 10:05:13;;;;;;;1.88;0.82;;;;;;;16.31;38.99;98326.88;5090260;28;20097;-84
2021/05/22 10:07:39;;;;;;;2.20;1.30;;;;;;;16.14;37.96;98337.75;5080517;28;20056;-84
2021/05/22 10:10:08;;;;;;;4.50;0.70;;;;;;;16.49;37.75;98334.13;5090251;28;20055;-83
2021/05/22 10:12:36;;;;;;;5.43;0.80;;;;;;;16.55;37.46;98325.72;5089611;28;20036;-84
2021/05/22 10:15:09;;;;;;;2.40;0.50;;;;;;;16.23;38.80;98342.63;5089186;28;20093;-84
2021/05/22 10:17:36;;;;;;;2.85;1.00;;;;;;;15.92;38.80;98331.00;5089852;28;20078;-83
2021/05/22 10:20:05;;;;;;;4.85;0.93;;;;;;;15.70;40.12;98316.22;5089549;28;20044;-83
2021/05/22 10:22:33;;;;;;;2.05;1.02;;;;;;;16.18;38.21;98344.44;5089090;28;20052;-85
2021/05/22 10:25:03;;;;;;;4.82;1.15;;;;;;;15.98;38.96;98331.94;5088931;28;20055;-84
2021/05/22 10:27:31;;;;;;;7.40;1.65;;;;;;;16.30;39.96;98337.00;5089606;28;20052;-85
2021/05/22 10:29:57;;;;;;;5.18;1.00;;;;;;;16.98;40.38;98324.38;5089782;28;20054;-84
2021/05/22 10:32:26;;;;;;;2.55;0.75;;;;;;;16.44;38.28;98338.41;5089960;28;20052;-84
2021/05/22 10:34:55;;;;;;;6.70;0.60;;;;;;;16.03;38.48;98331.22;5069866;28;20507;-83
2021/05/22 10:40:46;;;;;;;1.83;0.63;;;;;;;16.92;36.63;98333.59;5055959;28;20091;-84
2021/05/22 10:43:14;;;;;;;8.17;0.90;;;;;;;16.81;37.41;98329.78;5069569;28;20048;-84
2021/05/22 10:46:03;;;;;;;3.05;0.85;;;;;;;17.02;36.36;98332.13;5075203;28;20146;-84
2021/05/22 10:48:51;;;;;;;2.67;0.77;;;;;;;17.32;37.98;98332.63;5067482;28;20067;-84
2021/05/22 10:58:22;;;;;;;1.90;0.68;;;;;;;16.49;35.32;98320.41;4973642;28;20517;-85
2021/05/22 11:00:50;;;;;;;;;;;;;;;16.81;35.45;98337.19;4990026;28;20521;-84
2021/05/22 11:04:02;;;;;;;;;;;;;;;;;;;;;
2021/05/22 11:09:54;;;;;;;5.55;0.80;;;;;;;17.20;36.42;98339.28;5026361;28;20045;-84
2021/05/22 11:12:43;;;;;;;3.13;0.65;;;;;;;17.04;33.13;98332.69;5072364;28;20060;-84
2021/05/22 11:15:40;;;;;;;6.28;0.70;;;;;;;17.27;33.99;98337.22;5074379;28;20074;-83
2021/05/22 11:18:07;;;;;;;2.65;0.55;;;;;;;17.74;33.11;98342.38;5074061;28;20040;-84
2021/05/22 11:20:34;;;;;;;3.50;1.17;;;;;;;17.65;33.58;98327.38;5074619;28;20098;-84
2021/05/22 11:23:01;;;;;;;1.10;0.38;;;;;;;17.77;33.42;98347.34;5073164;28;20822;-84
2021/05/22 11:25:45;;;;;;;4.28;1.00;;;;;;;17.16;32.27;98331.56;5073956;28;20078;-84
2021/05/22 11:28:16;;;;;;;2.47;0.50;;;;;;;17.13;33.62;98323.81;5064921;28;20059;-85
2021/05/22 11:30:46;;;;;;;2.58;0.63;;;;;;;16.98;34.60;98338.09;5065198;28;20390;-84
2021/05/22 11:33:28;;;;;;;4.43;0.70;;;;;;;17.15;33.00;98359.25;5064828;28;20044;-86
2021/05/22 11:35:56;;;;;;;4.25;1.10;;;;;;;17.59;33.15;98348.44;5054854;28;20045;-84
2021/05/22 11:38:52;;;;;;;3.22;0.52;;;;;;;17.78;32.06;98360.03;5068648;28;20435;-85
2021/05/22 11:41:32;;;;;;;2.20;0.60;;;;;;;17.98;32.50;98333.94;5074113;28;20070;-84
2021/05/22 11:44:06;;;;;;;2.40;0.60;;;;;;;17.80;32.73;98352.34;5074182;28;20048;-85
2021/05/22 11:46:33;;;;;;;1.15;0.65;;;;;;;17.93;32.07;98348.47;5070339;28;20064;-84
2021/05/22 11:49:00;;;;;;;2.47;0.52;;;;;;;18.18;30.79;98333.38;5069014;28;20051;-84
2021/05/22 11:51:27;;;;;;;3.72;1.67;;;;;;;18.20;30.87;98342.19;5074080;28;20040;-84
2021/05/22 11:53:57;;;;;;;3.40;0.75;;;;;;;18.53;29.97;98344.03;5073994;28;20135;-82
2021/05/22 11:56:24;;;;;;;1.58;0.63;;;;;;;18.24;30.17;98328.78;5073038;28;20064;-85
2021/05/22 11:59:04;;;;;;;0.88;0.52;;;;;;;17.87;28.53;98355.75;5073613;28;20076;-84
2021/05/22 12:01:35;;;;;;;2.75;0.70;;;;;;;17.98;29.94;98344.94;5074045;28;20079;-86
2021/05/22 12:04:06;;;;;;;;;;;;;;;18.27;29.95;98356.59;5074247;28;20048;-81
2021/05/22 12:06:39;;;;;;;2.67;0.70;;;;;;;18.48;30.17;98329.34;5073374;28;19920;-86
2021/05/22 12:09:11;;;;;;;1.38;0.38;;;;;;;18.69;28.48;98356.03;5073915;28;20060;-85
2021/05/22 12:11:53;;;;;;;2.92;0.85;;;;;;;18.45;28.40;98371.16;5073720;28;20040;-84
2021/05/22 12:14:19;;;;;;;1.85;0.50;;;;;;;18.83;29.82;98353.69;5073038;28;20053;-85
2021/05/22 12:16:46;;;;;;;0.70;0.28;;;;;;;18.49;28.11;98358.56;5073581;28;20407;-84
2021/05/22 12:19:21;;;;;;;2.58;0.50;;;;;;;18.61;28.50;98345.47;5073172;28;20381;-84
2021/05/22 12:21:52;;;;;;;4.03;0.40;;;;;;;18.62;27.88;98352.63;5066115;28;20068;-84
2021/05/22 12:24:19;;;;;;;1.77;0.70;;;;;;;19.03;27.95;98347.63;5072884;28;20495;-84
2021/05/22 12:26:49;;;;;;;1.90;0.65;;;;;;;19.04;27.19;98348.44;5073149;28;20041;-83
2021/05/22 12:29:16;;;;;;;1.35;0.40;;;;;;;18.91;28.06;98342.25;5073192;28;20049;-84
2021/05/22 12:31:55;;;;;;;2.72;0.60;;;;;;;18.86;28.88;98358.75;5072547;28;20058;-84
2021/05/22 12:34:29;;;;;;;4.38;0.50;;;;;;;19.07;29.09;98345.16;5073196;28;20087;-85
2021/05/22 12:37:02;;;;;;;3.40;0.55;;;;;;;18.93;26.72;98345.56;5073745;28;20488;-84
2021/05/22 12:39:38;;;;;;;2.63;0.85;;;;;;;19.28;29.17;98335.16;5073001;28;20147;-87
2021/05/22 12:42:23;;;;;;;2.50;0.55;;;;;;;19.03;27.94;98350.38;5073208;28;20048;-86
2021/05/22 12:44:51;;;;;;;4.07;0.60;;;;;;;18.22;28.15;98370.31;5072892;28;20079;-86
2021/05/22 12:47:22;;;;;;;1.02;0.60;;;;;;;18.17;28.05;98362.81;5073165;28;20045;-85
2021/05/22 12:49:55;;;;;;;3.17;0.65;;;;;;;18.78;28.27;98355.59;5073258;28;20048;-86
2021/05/22 12:52:22;;;;;;;4.82;0.80;;;;;;;18.66;29.32;98336.44;5073176;28;20135;-84
2021/05/22 12:54:49;;;;;;;4.35;1.15;;;;;;;18.44;28.94;98363.97;5064735;28;20060;-85
2021/05/22 12:57:17;;;;;;;1.00;0.52;;;;;;;18.60;28.37;98362.25;5072209;28;20121;-84
2021/05/22 12:59:45;;;;;;;3.20;0.80;;;;;;;18.60;28.24;98352.06;5072219;28;20048;-84
2021/05/22 13:02:19;;;;;;;2.75;0.60;;;;;;;18.60;29.90;98354.00;5072516;28;20045;-86
2021/05/22 13:04:48;;;;;;;7.30;0.82;;;;;;;18.04;29.04;98352.19;5072121;28;20048;-84
2021/05/22 13:07:17;;;;;;;3.95;0.70;;;;;;;17.91;29.55;98371.78;5054192;28;20091;-84
2021/05/22 13:09:53;;;;;;;0.85;0.40;;;;;;;17.71;29.92;98366.78;5072135;28;20106;-84
2021/05/22 13:12:23;;;;;;;3.13;1.25;;;;;;;17.98;32.41;98350.44;5055507;28;20048;-84
2021/05/22 13:14:52;;;;;;;6.00;0.88;;;;;;;17.99;31.71;98374.09;5071548;28;20048;-84
2021/05/22 13:17:19;;;;;;;13.10;0.80;;;;;;;17.64;32.11;98356.78;5069537;28;20067;-83
2021/05/22 13:19:48;;;;;;;5.30;0.98;;;;;;;17.52;31.78;98365.13;5070980;28;20055;-83
2021/05/22 13:22:28;;;;;;;2.40;0.70;;;;;;;17.33;32.94;98371.94;5069999;28;20052;-82
2021/05/22 13:25:03;;;;;;;0.70;0.40;;;;;;;17.56;34.53;98368.19;5070109;28;20053;-84
2021/05/22 13:27:30;;;;;;;2.83;0.55;;;;;;;18.46;34.08;98379.16;5058117;28;20527;-84
2021/05/22 13:30:07;;;;;;;3.95;0.57;;;;;;;18.86;32.65;98363.41;5052578;28;20072;-84
2021/05/22 13:32:36;;;;;;;1.55;0.57;;;;;;;18.44;34.16;98363.97;5058320;28;20048;-84
2021/05/22 13:35:05;;;;;;;1.45;0.50;;;;;;;18.39;34.68;98378.50;5072484;28;20071;-85
2021/05/22 13:37:33;;;;;;;1.83;0.57;;;;;;;17.95;34.77;98382.03;5072885;28;20404;-86
2021/05/22 13:40:00;;;;;;;3.95;0.80;;;;;;;18.36;34.75;98376.25;5071947;28;20057;-85
2021/05/22 13:42:26;;;;;;;1.23;0.80;;;;;;;18.57;34.18;98371.84;5072876;28;20049;-85
2021/05/22 13:44:54;;;;;;;2.67;0.77;;;;;;;18.92;31.93;98374.22;5071812;28;20052;-84
2021/05/22 13:47:20;;;;;;;3.25;0.55;;;;;;;18.69;32.29;98375.28;5072737;28;20131;-84
2021/05/22 13:49:47;;;;;;;1.40;0.50;;;;;;;18.81;31.83;98374.34;5072610;28;20072;-83
2021/05/22 13:52:13;;;;;;;1.75;0.50;;;;;;;18.81;32.26;98366.06;5072265;28;20094;-83
2021/05/22 13:54:47;;;;;;;3.25;1.20;;;;;;;18.94;31.63;98360.19;5071926;28;20044;-85
2021/05/22 13:57:24;;;;;;;;;;;;;;;;;;;;;
2021/05/22 13:59:51;;;;;;;1.45;0.47;;;;;;;19.52;32.61;98370.66;5055796;28;20056;-84
2021/05/22 14:02:20;;;;;;;2.55;0.70;;;;;;;19.63;31.89;98350.31;5071156;28;20549;-82
2021/05/22 14:04:46;;;;;;;1.38;0.50;;;;;;;19.94;33.09;98342.31;5071899;28;20044;-83
2021/05/22 14:07:13;;;;;;;4.50;0.85;;;;;;;19.24;29.99;98351.41;5072162;28;20044;-83
2021/05/22 14:09:51;;;;;;;1.50;0.60;;;;;;;19.10;29.78;98352.91;5070138;28;20056;-84
2021/05/22 14:12:18;;;;;;;2.00;0.52;;;;;;;18.37;31.29;98350.41;5055192;28;20080;-84
2021/05/22 14:14:45;;;;;;;7.25;1.02;;;;;;;18.82;31.34;98373.22;5074993;28;20072;-84
2021/05/22 14:17:12;;;;;;;3.15;0.70;;;;;;;19.48;29.50;98356.56;5076189;28;20052;-84
2021/05/22 14:19:43;;;;;;;1.50;0.50;;;;;;;19.02;29.22;98353.38;5075169;28;20090;-84
2021/05/22 14:22:09;;;;;;;2.60;0.57;;;;;;;18.61;30.98;98364.75;5075770;28;20045;-85
2021/05/22 14:24:47;;;;;;;1.10;0.47;;;;;;;18.58;32.26;98371.59;5075135;28;20044;-84
2021/05/22 14:27:17;;;;;;;1.25;0.25;;;;;;;18.96;30.50;98362.69;5075948;28;20040;-83
2021/05/22 14:29:43;;;;;;;0.32;0.30;;;;;;;19.33;29.30;98349.00;5074943;28;20048;-83
2021/05/22 14:32:16;;;;;;;0.90;0.30;;;;;;;18.80;28.67;98340.44;5074847;28;20044;-82
2021/05/22 14:34:52;;;;;;;1.98;0.20;;;;;;;18.51;30.08;98346.19;5074896;28;20041;-82
2021/05/22 14:37:18;;;;;;;1.70;0.77;;;;;;;17.78;29.76;98332.53;5075314;28;20109;-81
2021/05/22 14:39:44;;;;;;;1.33;0.40;;;;;;;17.98;32.24;98326.53;5075780;28;20056;-82
2021/05/22 14:42:11;;;;;;;0.95;0.57;;;;;;;17.73;30.54;98346.19;5075301;28;20044;-79
2021/05/22 14:44:38;;;;;;;0.93;0.40;;;;;;;17.83;31.17;98334.53;5074791;28;20488;-81
2021/05/22 14:47:07;;;;;;;1.30;0.30;;;;;;;17.58;30.64;98341.28;5074674;28;20060;-83
2021/05/22 14:49:33;;;;;;;3.38;0.60;;;;;;;17.69;31.20;98353.28;5075295;28;20049;-82
2021/05/22 14:52:00;;;;;;;1.35;0.55;;;;;;;17.47;30.94;98353.22;5075214;28;20502;-82
2021/05/22 14:54:27;;;;;;;1.50;0.50;;;;;;;17.45;31.06;98349.88;5074436;28;20507;-82
2021/05/22 14:56:53;;;;;;;1.95;0.50;;;;;;;17.46;31.16;98351.53;5075093;28;20045;-82
2021/05/22 14:59:20;;;;;;;0.25;0.20;;;;;;;17.68;32.47;98354.38;5075065;28;20491;-83
2021/05/22 15:01:49;;;;;;;1.73;0.52;;;;;;;17.42;32.03;98344.88;5063498;28;20068;-83
2021/05/22 15:04:18;;;;;;;2.45;0.47;;;;;;;17.47;31.39;98350.47;5074156;28;20044;-83
2021/05/22 15:06:44;;;;;;;2.40;0.68;;;;;;;17.24;31.40;98346.78;5074916;28;20053;-83
2021/05/22 15:09:11;;;;;;;1.48;0.40;;;;;;;17.45;32.01;98355.38;5074376;28;20496;-83
2021/05/22 15:11:38;;;;;;;1.50;0.77;;;;;;;17.40;33.11;98353.34;5074872;28;20484;-83
2021/05/22 15:14:05;;;;;;;1.52;0.45;;;;;;;17.49;31.48;98349.13;5074653;28;20109;-84
2021/05/22 15:16:33;;;;;;;2.33;0.55;;;;;;;17.62;32.69;98347.94;5070022;28;20382;-82
2021/05/22 15:18:59;;;;;;;1.35;0.60;;;;;;;18.09;31.48;98340.41;5064169;28;20453;-83
2021/05/22 15:21:43;;;;;;;5.47;0.60;;;;;;;18.32;31.77;98350.34;5074632;28;20059;-83
2021/05/22 15:24:49;;;;;;;2.25;0.68;;;;;;;18.31;31.79;98337.69;5068846;28;20045;-82
2021/05/22 15:27:15;;;;;;;1.08;0.55;;;;;;;18.59;30.94;98336.63;5073114;28;20109;-83
2021/05/22 15:33:13;;;;;;;3.78;0.68;;;;;;;18.57;31.76;98360.84;4952665;28;20122;-83
2021/05/22 15:35:40;;;;;;;2.30;0.60;;;;;;;18.40;33.15;98345.22;5073046;28;20084;-83
2021/05/22 15:38:08;;;;;;;2.22;0.60;;;;;;;18.41;33.56;98359.81;5073705;28;20128;-83
2021/05/22 15:40:34;;;;;;;5.93;0.70;;;;;;;18.84;33.22;98355.38;5056650;28;20063;-83
2021/05/22 15:46:51;;;;;;;3.58;0.57;;;;;;;18.32;32.56;98361.34;5011245;28;20576;-84
2021/05/22 16:00:33;;;;;;;3.92;1.50;;;;;;;18.83;33.32;98370.22;5066085;28;20044;-82
2021/05/22 16:03:08;;;;;;;6.80;3.88;;;;;;;18.92;32.82;98351.34;5073710;28;20643;-83
2021/05/22 16:05:42;;;;;;;3.03;1.58;;;;;;;19.32;31.48;98355.59;5073411;28;20102;-82
2021/05/22 16:08:09;;;;;;;1.75;1.02;;;;;;;19.54;32.83;98355.53;5073670;28;20056;-83
2021/05/22 16:10:35;;;;;;;2.40;1.00;;;;;;;19.87;33.24;98356.34;5073639;28;20048;-81
2021/05/22 16:13:01;;;;;;;2.53;0.40;;;;;;;19.61;31.56;98353.34;5073370;28;20181;-82
2021/05/22 16:49:35;;;;;;;1.95;0.47;;;;;;;17.84;30.06;98377.44;4944970;28;20050;-84
2021/05/22 16:52:05;;;;;;;2.05;0.60;;;;;;;17.80;30.26;98373.53;5068715;28;20048;-83
2021/05/22 16:54:35;;;;;;;1.92;0.40;;;;;;;17.88;30.79;98375.81;5044116;28;20088;-83
2021/05/22 16:57:05;;;;;;;1.25;0.68;;;;;;;17.84;30.32;98374.69;5070519;28;20056;-83
2021/05/22 17:02:12;;;;;;;0.63;0.40;;;;;;;17.76;30.58;98370.41;5069012;28;19920;-82
2021/05/22 17:04:39;;;;;;;2.75;0.45;;;;;;;17.74;30.76;98385.53;5069796;28;20079;-82
2021/05/22 17:07:06;;;;;;;2.55;0.73;;;;;;;17.94;31.93;98371.28;5069704;28;20057;-83
2021/05/22 17:09:38;;;;;;;1.75;0.40;;;;;;;18.06;31.56;98380.25;5062178;22;20041;-82
2021/05/22 17:12:22;;;;;;;2.25;0.63;;;;;;;18.24;33.58;98379.13;5029309;28;20081;-83
2021/05/22 17:14:48;;;;;;;2.03;0.70;;;;;;;18.01;31.94;98397.50;5027328;28;20053;-84
2021/05/22 17:17:15;;;;;;;1.27;0.50;;;;;;;17.84;32.61;98393.94;5030597;28;20050;-83
2021/05/22 17:19:56;;;;;;;1.73;0.45;;;;;;;17.87;34.05;98387.94;5031584;28;20444;-84
2021/05/22 18:05:41;;;;;;;1.95;0.50;;;;;;;16.29;36.22;98390.22;5046373;28;20134;-86
2021/05/22 18:08:09;;;;;;;2.00;0.73;;;;;;;16.33;36.04;98404.25;5048426;28;20524;-86
2021/05/22 18:10:37;;;;;;;3.75;1.02;;;;;;;16.03;36.07;98388.78;5049232;28;20098;-86
2021/05/22 18:13:04;;;;;;;2.00;0.77;;;;;;;16.05;36.62;98389.41;5036760;28;20049;-85
2021/05/22 18:15:32;;;;;;;3.45;1.02;;;;;;;16.10;38.26;98403.22;5033832;28;20060;-86
2021/05/22 18:18:05;;;;;;;2.75;0.90;;;;;;;16.18;38.25;98405.59;5050900;28;20057;-85
2021/05/22 18:20:34;;;;;;;2.55;0.77;;;;;;;15.87;38.17;98385.72;5053402;28;20059;-86
2021/05/22 18:23:02;;;;;;;5.57;0.60;;;;;;;15.82;38.59;98392.97;5048841;28;20460;-86
2021/05/22 18:25:41;;;;;;;3.05;0.50;;;;;;;15.85;38.61;98411.69;5040813;28;20076;-85
2021/05/22 18:31:33;;;;;;;7.72;0.70;;;;;;;15.64;39.70;98422.13;5054176;28;20053;-86
2021/05/22 18:34:04;;;;;;;0.82;0.50;;;;;;;15.57;39.20;98397.56;5043100;28;20102;-87
2021/05/22 18:36:39;;;;;;;2.85;0.80;;;;;;;15.57;39.25;98413.19;5054227;28;20060;-86
2021/05/22 18:39:09;;;;;;;2.03;0.60;;;;;;;15.39;40.82;98422.31;5042564;28;20095;-85
2021/05/22 18:41:44;;;;;;;1.63;0.80;;;;;;;15.36;40.45;98420.03;5034677;28;20049;-85
2021/05/22 18:44:11;;;;;;;2.63;0.80;;;;;;;15.21;40.88;98413.09;5045740;28;20045;-87
2021/05/22 18:46:39;;;;;;;2.80;0.73;;;;;;;15.21;42.36;98421.28;5054813;28;20045;-86
2021/05/22 18:49:21;;;;;;;2.40;0.70;;;;;;;14.95;41.72;98406.09;5053072;28;20055;-85
2021/05/22 18:51:51;;;;;;;3.28;1.48;;;;;;;15.01;41.25;98424.31;5052167;28;20053;-86
2021/05/22 18:54:30;;;;;;;2.42;0.88;;;;;;;14.91;42.45;98413.09;5051827;28;20041;-85
2021/05/22 18:56:59;;;;;;;1.00;0.87;;;;;;;14.85;42.22;98422.22;5034735;28;20084;-86
2021/05/22 18:59:35;;;;;;;1.20;1.08;;;;;;;14.82;42.70;98433.66;5041021;28;20405;-86
2021/05/22 19:02:17;;;;;;;3.08;0.73;;;;;;;14.82;41.72;98439.94;5040676;28;20128;-86
2021/05/22 19:04:45;;;;;;;1.52;0.80;;;;;;;14.67;42.58;98421.19;5053695;28;20057;-86
2021/05/22 19:07:12;;;;;;;3.92;0.80;;;;;;;14.81;42.74;98435.56;5038224;28;20504;-87
2021/05/22 19:09:44;;;;;;;0.85;0.70;;;;;;;14.64;42.05;98429.84;5048501;28;20139;-86
2021/05/22 19:12:10;;;;;;;0.90;0.57;;;;;;;14.64;42.53;98445.44;5037897;28;20489;-86
2021/05/22 19:14:51;;;;;;;2.53;0.70;;;;;;;14.46;42.80;98435.31;5036131;28;20091;-86
2021/05/22 19:17:25;;;;;;;0.70;0.57;;;;;;;14.44;41.92;98441.00;5033453;28;20490;-86
2021/05/22 19:19:57;;;;;;;1.45;0.73;;;;;;;14.29;42.11;98433.19;5045386;28;20476;-86
2021/05/22 19:22:26;;;;;;;2.75;0.70;;;;;;;14.46;43.11;98444.34;5052695;28;20048;-85
2021/05/22 19:24:54;;;;;;;3.08;0.80;;;;;;;14.28;42.39;98434.22;5051784;28;20707;-85
2021/05/22 19:27:22;;;;;;;0.88;0.70;;;;;;;14.35;42.42;98456.03;5053279;28;20049;-86
2021/05/22 19:32:53;;;;;;;;;;;;;;;;;;;;;
2021/05/22 19:35:38;;;;;;;0.60;0.52;;;;;;;14.17;43.44;98465.06;5051892;28;20127;-85
2021/05/22 19:38:06;;;;;;;2.10;0.90;;;;;;;14.04;43.04;98468.75;5042734;28;20496;-85
2021/05/22 19:40:36;;;;;;;2.83;0.60;;;;;;;14.09;43.74;98479.84;5052722;28;20052;-86
2021/05/22 19:43:05;;;;;;;2.80;1.05;;;;;;;14.01;43.81;98482.03;5045613;28;20052;-85
2021/05/22 19:45:34;;;;;;;1.33;0.75;;;;;;;13.94;44.35;98482.94;5050754;28;20052;-86
2021/05/22 19:48:07;;;;;;;4.00;0.98;;;;;;;13.88;44.77;98477.50;5052532;28;20045;-86
2021/05/22 19:50:38;;;;;;;0.98;0.40;;;;;;;13.73;44.86;98465.03;5051981;28;20049;-85
2021/05/22 19:55:53;;;;;;;1.60;0.70;;;;;;;13.79;46.05;98485.16;5030820;28;20064;-87
2021/05/22 19:58:22;;;;;;;3.83;0.60;;;;;;;13.78;45.90;98488.94;5032836;28;20049;-86
2021/05/22 20:00:49;;;;;;;8.20;0.70;;;;;;;13.75;46.20;98500.31;5039771;28;20071;-86
2021/05/22 20:03:17;;;;;;;1.92;0.60;;;;;;;13.68;46.78;98488.59;5051991;28;20377;-87
2021/05/22 20:05:48;;;;;;;1.65;0.77;;;;;;;13.60;46.89;98506.91;5040188;28;20054;-84
2021/05/22 20:08:36;;;;;;;;;;;;;;;;;;;;;
2021/05/22 20:13:50;;;;;;;3.15;0.95;;;;;;;13.62;47.74;98529.41;5051044;28;20112;-83
2021/05/22 20:16:30;;;;;;;3.60;0.80;;;;;;;13.63;47.29;98524.78;5051334;28;20118;-85
2021/05/22 20:24:43;;;;;;;8.52;3.38;;;;;;;13.40;48.59;98555.38;5048777;28;20523;-86
2021/05/22 20:27:09;;;;;;;5.50;2.72;;;;;;;13.36;47.96;98576.78;5051568;28;20056;-86
2021/05/22 20:29:49;;;;;;;7.00;1.50;;;;;;;13.31;48.99;98556.63;5051151;28;20142;-86
2021/05/22 20:32:47;;;;;;;2.35;1.10;;;;;;;13.32;49.86;98570.06;5048689;28;20499;-86
2021/05/22 20:39:09;;;;;;;2.42;0.88;;;;;;;13.05;49.68;98559.28;4937581;29;20146;-85
2021/05/22 20:42:06;;;;;;;3.30;1.08;;;;;;;13.10;51.02;98575.81;5019268;28;20045;-85
2021/05/22 20:47:40;;;;;;;3.40;1.23;;;;;;;12.97;52.34;98551.31;4978292;28;20121;-86
2021/05/22 20:50:14;;;;;;;4.47;2.00;;;;;;;12.92;52.30;98570.22;4990163;28;20054;-86
2021/05/22 20:52:41;;;;;;;4.20;1.80;;;;;;;12.85;52.66;98559.31;5033857;28;20072;-86
2021/05/22 20:55:11;;;;;;;1.70;0.93;;;;;;;12.86;53.04;98590.19;5051824;28;20052;-86
2021/05/22 20:58:45;;;;;;;2.35;1.10;;;;;;;12.78;51.97;98580.34;5051888;28;20456;-86
2021/05/22 21:01:39;;;;;;;3.92;0.68;;;;;;;12.77;52.42;98591.44;5051523;28;20059;-86
2021/05/22 21:04:16;;;;;;;2.50;0.88;;;;;;;12.82;52.07;98595.22;5042837;28;20568;-85
2021/05/22 21:06:46;;;;;;;3.25;0.80;;;;;;;12.74;52.27;98581.81;5051122;28;20045;-85
2021/05/22 21:09:20;;;;;;;0.77;0.52;;;;;;;12.64;52.69;98565.88;5038791;28;20465;-85
2021/05/22 21:11:53;;;;;;;0.95;0.63;;;;;;;12.62;53.09;98576.19;5051511;28;20060;-85
2021/05/22 21:14:24;;;;;;;3.35;0.50;;;;;;;12.60;53.58;98589.19;5045938;28;20053;-85
2021/05/22 21:16:53;;;;;;;2.53;0.68;;;;;;;12.53;53.40;98577.44;5050640;28;20068;-85
2021/05/22 21:19:31;;;;;;;1.02;0.55;;;;;;;12.46;53.01;98587.53;5051316;28;20151;-85
2021/05/22 21:22:13;;;;;;;5.85;1.02;;;;;;;12.47;53.77;98589.22;5049502;28;20049;-85
2021/05/22 21:24:41;;;;;;;1.13;0.40;;;;;;;12.50;53.53;98592.34;5050813;28;20049;-85
2021/05/22 21:30:21;;;;;;;2.30;0.40;;;;;;;12.44;53.46;98603.25;4969070;28;20062;-85
2021/05/22 21:33:29;;;;;;;0.70;0.60;;;;;;;12.39;53.72;98601.16;5014381;28;20049;-84
2021/05/22 21:36:06;;;;;;;1.40;0.60;;;;;;;12.33;54.73;98608.28;5008392;28;20192;-84
2021/05/22 21:41:55;;;;;;;3.83;0.57;;;;;;;12.32;54.62;98609.34;5045254;28;20044;-85
2021/05/22 21:44:39;;;;;;;3.22;1.63;;;;;;;12.31;54.88;98632.19;5050492;28;20049;-85
2021/05/22 21:47:28;;;;;;;0.70;0.70;;;;;;;12.33;55.44;98623.78;5050681;28;20048;-85
2021/05/22 21:56:23;;;;;;;1.90;0.60;;;;;;;12.32;55.11;98617.50;4948356;28;20109;-84
2021/05/22 21:58:57;;;;;;;2.15;1.00;;;;;;;12.32;56.31;98613.94;5024130;28;20045;-84
2021/05/22 22:01:31;;;;;;;2.08;0.52;;;;;;;12.19;55.67;98604.72;5050482;28;20448;-84
2021/05/22 22:07:04;;;;;;;2.60;0.95;;;;;;;12.16;56.60;98605.16;5045638;28;20045;-84
2021/05/22 22:10:14;;;;;;;3.00;0.88;;;;;;;12.37;56.22;98623.19;5050464;28;20060;-85
2021/05/22 22:16:20;;;;;;;3.25;0.77;;;;;;;12.11;59.95;98612.28;5049026;28;20098;-85
2021/05/22 22:19:24;;;;;;;3.63;1.23;;;;;;;12.10;60.85;98626.94;5049731;28;20052;-85
2021/05/22 22:22:02;;;;;;;16.65;2.53;;;;;;;11.81;61.07;98628.94;5024853;28;20522;-85
2021/05/22 22:24:39;;;;;;;2.65;0.70;;;;;;;11.78;61.40;98616.56;5050725;28;20049;-85
2021/05/22 22:30:27;;;;;;;4.60;1.77;;;;;;;11.61;63.72;98613.41;5014137;28;20079;-85
2021/05/22 22:32:57;;;;;;;2.37;0.67;;;;;;;11.58;63.14;98615.72;5052096;28;20147;-84
2021/05/22 22:35:40;;;;;;;1.73;0.68;;;;;;;11.66;63.98;98623.66;5054208;28;20573;-84
2021/05/22 22:40:53;;;;;;;2.05;0.70;;;;;;;11.56;64.76;98629.53;5049183;28;20049;-85
2021/05/22 22:43:25;;;;;;;2.30;0.80;;;;;;;11.42;65.21;98623.16;5045652;28;20072;-85
2021/05/22 22:46:05;;;;;;;0.95;0.50;;;;;;;11.53;64.81;98627.19;5053544;28;20044;-85
2021/05/22 22:49:10;;;;;;;1.40;0.77;;;;;;;11.67;64.04;98628.91;5040785;28;20076;-83
2021/05/22 22:52:06;;;;;;;1.23;0.70;;;;;;;11.56;64.19;98626.81;5009726;28;20042;-84
2021/05/22 22:54:41;;;;;;;1.52;0.60;;;;;;;11.64;64.67;98644.81;5051822;28;20049;-84
2021/05/22 22:57:11;;;;;;;1.80;0.80;;;;;;;11.50;65.35;98638.47;5053982;28;20559;-84
2021/05/22 22:59:43;;;;;;;3.40;1.17;;;;;;;11.53;64.06;98632.63;5052860;28;20147;-84
2021/05/22 23:02:12;;;;;;;1.25;0.60;;;;;;;11.63;64.43;98640.41;5053742;28;20484;-84
2021/05/22 23:04:45;;;;;;;2.08;0.65;;;;;;;11.48;65.34;98624.25;5052634;28;20196;-84
2021/05/22 23:07:19;;;;;;;3.92;0.70;;;;;;;11.60;64.46;98614.44;5053829;28;20044;-84
2021/05/22 23:09:53;;;;;;;3.05;0.73;;;;;;;11.54;64.62;98622.59;5053431;28;20049;-84
2021/05/22 23:16:03;;;;;;;1.45;0.77;;;;;;;11.40;65.14;98614.38;4898154;29;20064;-84
2021/05/22 23:25:44;;;;;;;1.55;0.60;;;;;;;11.19;65.39;98623.50;4993062;28;20045;-83
2021/05/22 23:31:14;;;;;;;1.25;0.80;;;;;;;11.41;64.77;98624.22;5033699;28;20049;-85
2021/05/22 23:36:57;;;;;;;2.70;1.00;;;;;;;11.38;64.82;98624.63;5028459;28;20045;-84
2021/05/22 23:43:14;;;;;;;1.35;0.70;;;;;;;11.20;66.74;98632.50;5031066;28;20079;-84
2021/05/22 23:46:12;;;;;;;1.10;0.70;;;;;;;11.33;65.48;98632.56;4999424;28;20144;-84
2021/05/22 23:49:25;;;;;;;0.65;0.50;;;;;;;11.32;65.50;98639.03;5053434;28;20041;-85
2021/05/22 23:52:00;;;;;;;1.17;0.68;;;;;;;11.32;66.19;98634.44;5044768;28;20266;-83
2021/05/22 23:54:27;;;;;;;0.75;0.60;;;;;;;11.32;66.04;98631.72;5051570;28;20056;-84
2021/05/22 23:56:53;;;;;;;1.40;0.63;;;;;;;11.31;67.17;98637.38;5042791;28;20041;-84
2021/05/22 23:59:20;;;;;;;1.45;0.70;;;;;;;11.27;66.96;98627.94;5035322;28;20208;-84
